sensor_id;sensor_type;location;lat;lon;timestamp;P1;durP1;ratioP1;P2;durP2;ratioP2
8640;SDS011;4358;42.100;25.222;2023-07-20T00:02:23;9.30;;;5.63;;
8640;SDS011;4358;42.100;25.222;2023-07-20T00:04:50;9.10;;;5.67;;
8640;SDS011;4358;42.100;25.222;2023-07-20T00:07:17;6.20;;;5.60;;
8640;SDS011;4358;42.100;25.222;2023-07-20T00:09:44;6.40;;;5.80;;
8640;SDS011;4358;42.100;25.222;2023-07-20T00:12:12;6.63;;;5.70;;
8640;SDS011;4358;42.100;25.222;2023-07-20T00:14:39;6.80;;;5.23;;
8640;SDS011;4358;42.100;25.222;2023-07-20T00:17:06;5.83;;;5.23;;
8640;SDS011;4358;42.100;25.222;2023-07-20T00:19:32;7.50;;;6.03;;
8640;SDS011;4358;42.100;25.222;2023-07-20T00:22:00;7.73;;;5.70;;
8640;SDS011;4358;42.100;25.222;2023-07-20T00:24:27;6.73;;;5.97;;
8640;SDS011;4358;42.100;25.222;2023-07-20T00:26:54;7.07;;;6.00;;
8640;SDS011;4358;42.100;25.222;2023-07-20T00:29:22;6.93;;;5.83;;
8640;SDS011;4358;42.100;25.222;2023-07-20T00:31:48;7.47;;;5.70;;
8640;SDS011;4358;42.100;25.222;2023-07-20T00:34:15;7.23;;;5.60;;
8640;SDS011;4358;42.100;25.222;2023-07-20T00:36:42;6.57;;;5.87;;
8640;SDS011;4358;42.100;25.222;2023-07-20T00:39:09;6.50;;;5.90;;
8640;SDS011;4358;42.100;25.222;2023-07-20T00:41:36;6.93;;;5.90;;
8640;SDS011;4358;42.100;25.222;2023-07-20T00:44:03;7.27;;;5.30;;
8640;SDS011;4358;42.100;25.222;2023-07-20T00:46:32;12.33;;;5.70;;
8640;SDS011;4358;42.100;25.222;2023-07-20T00:48:59;7.27;;;6.10;;
8640;SDS011;4358;42.100;25.222;2023-07-20T00:51:26;6.97;;;5.60;;
8640;SDS011;4358;42.100;25.222;2023-07-20T00:53:53;8.30;;;7.20;;
8640;SDS011;4358;42.100;25.222;2023-07-20T00:56:21;6.30;;;5.70;;
8640;SDS011;4358;42.100;25.222;2023-07-20T00:58:48;7.03;;;5.27;;
8640;SDS011;4358;42.100;25.222;2023-07-20T01:01:15;7.20;;;5.93;;
8640;SDS011;4358;42.100;25.222;2023-07-20T01:03:43;6.20;;;5.60;;
8640;SDS011;4358;42.100;25.222;2023-07-20T01:06:12;7.83;;;6.00;;
8640;SDS011;4358;42.100;25.222;2023-07-20T01:08:47;7.57;;;5.80;;
8640;SDS011;4358;42.100;25.222;2023-07-20T01:11:23;6.27;;;5.67;;
8640;SDS011;4358;42.100;25.222;2023-07-20T01:13:55;9.47;;;6.30;;
8640;SDS011;4358;42.100;25.222;2023-07-20T01:16:21;9.43;;;6.50;;
8640;SDS011;4358;42.100;25.222;2023-07-20T01:18:51;9.13;;;6.10;;
8640;SDS011;4358;42.100;25.222;2023-07-20T01:21:27;7.93;;;6.10;;
8640;SDS011;4358;42.100;25.222;2023-07-20T01:24:11;7.13;;;6.17;;
8640;SDS011;4358;42.100;25.222;2023-07-20T01:27:09;8.57;;;5.97;;
8640;SDS011;4358;42.100;25.222;2023-07-20T01:30:02;7.93;;;5.73;;
8640;SDS011;4358;42.100;25.222;2023-07-20T01:32:53;9.03;;;5.40;;
8640;SDS011;4358;42.100;25.222;2023-07-20T01:35:21;8.20;;;5.47;;
8640;SDS011;4358;42.100;25.222;2023-07-20T01:37:53;7.10;;;6.30;;
8640;SDS011;4358;42.100;25.222;2023-07-20T01:40:20;7.23;;;6.27;;
8640;SDS011;4358;42.100;25.222;2023-07-20T01:42:48;7.07;;;6.33;;
8640;SDS011;4358;42.100;25.222;2023-07-20T01:45:15;6.40;;;5.80;;
8640;SDS011;4358;42.100;25.222;2023-07-20T01:47:42;8.70;;;6.07;;
8640;SDS011;4358;42.100;25.222;2023-07-20T01:50:11;6.67;;;6.07;;
8640;SDS011;4358;42.100;25.222;2023-07-20T01:52:38;9.47;;;6.20;;
8640;SDS011;4358;42.100;25.222;2023-07-20T01:55:05;6.10;;;5.53;;
8640;SDS011;4358;42.100;25.222;2023-07-20T01:57:32;6.90;;;5.87;;
8640;SDS011;4358;42.100;25.222;2023-07-20T01:59:59;7.83;;;6.07;;
8640;SDS011;4358;42.100;25.222;2023-07-20T02:02:27;7.90;;;6.20;;
8640;SDS011;4358;42.100;25.222;2023-07-20T02:04:54;10.43;;;5.37;;
8640;SDS011;4358;42.100;25.222;2023-07-20T02:07:22;8.63;;;5.73;;
8640;SDS011;4358;42.100;25.222;2023-07-20T02:09:49;8.80;;;5.60;;
8640;SDS011;4358;42.100;25.222;2023-07-20T02:12:16;6.60;;;5.40;;
8640;SDS011;4358;42.100;25.222;2023-07-20T02:14:42;8.47;;;6.00;;
8640;SDS011;4358;42.100;25.222;2023-07-20T02:17:09;9.00;;;5.83;;
8640;SDS011;4358;42.100;25.222;2023-07-20T02:19:37;7.07;;;5.60;;
8640;SDS011;4358;42.100;25.222;2023-07-20T02:22:04;8.50;;;6.03;;
8640;SDS011;4358;42.100;25.222;2023-07-20T02:24:33;14.13;;;6.00;;
8640;SDS011;4358;42.100;25.222;2023-07-20T02:26:59;10.97;;;7.47;;
8640;SDS011;4358;42.100;25.222;2023-07-20T02:29:26;13.67;;;9.47;;
8640;SDS011;4358;42.100;25.222;2023-07-20T02:31:53;11.90;;;10.10;;
8640;SDS011;4358;42.100;25.222;2023-07-20T02:34:20;16.87;;;13.23;;
8640;SDS011;4358;42.100;25.222;2023-07-20T02:36:47;17.20;;;13.37;;
8640;SDS011;4358;42.100;25.222;2023-07-20T02:39:14;14.87;;;11.20;;
8640;SDS011;4358;42.100;25.222;2023-07-20T02:41:42;14.80;;;12.00;;
8640;SDS011;4358;42.100;25.222;2023-07-20T02:44:09;15.43;;;9.23;;
8640;SDS011;4358;42.100;25.222;2023-07-20T02:46:36;9.37;;;6.77;;
8640;SDS011;4358;42.100;25.222;2023-07-20T02:49:03;7.33;;;6.60;;
8640;SDS011;4358;42.100;25.222;2023-07-20T02:51:30;7.10;;;5.60;;
8640;SDS011;4358;42.100;25.222;2023-07-20T02:53:57;9.37;;;5.60;;
8640;SDS011;4358;42.100;25.222;2023-07-20T02:56:23;9.27;;;5.77;;
8640;SDS011;4358;42.100;25.222;2023-07-20T02:58:52;6.33;;;5.73;;
8640;SDS011;4358;42.100;25.222;2023-07-20T03:01:18;8.67;;;5.90;;
8640;SDS011;4358;42.100;25.222;2023-07-20T03:03:45;8.80;;;5.27;;
8640;SDS011;4358;42.100;25.222;2023-07-20T03:06:12;8.03;;;6.07;;
8640;SDS011;4358;42.100;25.222;2023-07-20T03:08:39;8.60;;;5.70;;
8640;SDS011;4358;42.100;25.222;2023-07-20T03:11:12;6.77;;;5.80;;
8640;SDS011;4358;42.100;25.222;2023-07-20T03:13:40;8.67;;;5.93;;
8640;SDS011;4358;42.100;25.222;2023-07-20T03:16:09;7.23;;;6.00;;
8640;SDS011;4358;42.100;25.222;2023-07-20T03:18:37;8.40;;;6.17;;
8640;SDS011;4358;42.100;25.222;2023-07-20T03:21:04;12.87;;;6.07;;
8640;SDS011;4358;42.100;25.222;2023-07-20T03:23:31;8.77;;;6.40;;
8640;SDS011;4358;42.100;25.222;2023-07-20T03:25:58;7.00;;;6.07;;
8640;SDS011;4358;42.100;25.222;2023-07-20T03:28:25;8.20;;;5.80;;
8640;SDS011;4358;42.100;25.222;2023-07-20T03:30:52;11.87;;;6.13;;
8640;SDS011;4358;42.100;25.222;2023-07-20T03:33:24;10.37;;;5.80;;
8640;SDS011;4358;42.100;25.222;2023-07-20T03:35:52;7.33;;;5.63;;
8640;SDS011;4358;42.100;25.222;2023-07-20T03:38:19;8.43;;;5.90;;
8640;SDS011;4358;42.100;25.222;2023-07-20T03:40:49;8.83;;;5.90;;
8640;SDS011;4358;42.100;25.222;2023-07-20T03:43:17;10.73;;;6.43;;
8640;SDS011;4358;42.100;25.222;2023-07-20T03:45:44;6.87;;;6.17;;
8640;SDS011;4358;42.100;25.222;2023-07-20T03:48:13;10.00;;;6.50;;
8640;SDS011;4358;42.100;25.222;2023-07-20T03:50:41;10.83;;;5.80;;
8640;SDS011;4358;42.100;25.222;2023-07-20T03:53:10;10.67;;;6.13;;
8640;SDS011;4358;42.100;25.222;2023-07-20T03:55:37;9.67;;;6.23;;
8640;SDS011;4358;42.100;25.222;2023-07-20T03:58:05;9.40;;;6.00;;
8640;SDS011;4358;42.100;25.222;2023-07-20T04:00:32;22.57;;;7.03;;
8640;SDS011;4358;42.100;25.222;2023-07-20T04:02:59;24.60;;;7.53;;
8640;SDS011;4358;42.100;25.222;2023-07-20T04:05:26;16.47;;;7.33;;
8640;SDS011;4358;42.100;25.222;2023-07-20T04:07:55;28.43;;;7.60;;
8640;SDS011;4358;42.100;25.222;2023-07-20T04:10:22;15.87;;;7.30;;
8640;SDS011;4358;42.100;25.222;2023-07-20T04:12:49;21.20;;;7.27;;
8640;SDS011;4358;42.100;25.222;2023-07-20T04:15:15;25.33;;;8.50;;
8640;SDS011;4358;42.100;25.222;2023-07-20T04:17:42;22.73;;;7.60;;
8640;SDS011;4358;42.100;25.222;2023-07-20T04:20:10;26.13;;;6.90;;
8640;SDS011;4358;42.100;25.222;2023-07-20T04:22:38;17.47;;;6.80;;
8640;SDS011;4358;42.100;25.222;2023-07-20T04:25:06;16.87;;;7.97;;
8640;SDS011;4358;42.100;25.222;2023-07-20T04:27:35;9.53;;;7.00;;
8640;SDS011;4358;42.100;25.222;2023-07-20T04:30:02;16.90;;;12.20;;
8640;SDS011;4358;42.100;25.222;2023-07-20T04:32:30;19.77;;;7.83;;
8640;SDS011;4358;42.100;25.222;2023-07-20T04:34:59;9.37;;;6.83;;
8640;SDS011;4358;42.100;25.222;2023-07-20T04:37:25;10.03;;;6.53;;
8640;SDS011;4358;42.100;25.222;2023-07-20T04:39:52;11.97;;;7.70;;
8640;SDS011;4358;42.100;25.222;2023-07-20T04:42:21;9.77;;;6.73;;
8640;SDS011;4358;42.100;25.222;2023-07-20T04:44:47;10.53;;;7.20;;
8640;SDS011;4358;42.100;25.222;2023-07-20T04:47:14;12.10;;;7.50;;
8640;SDS011;4358;42.100;25.222;2023-07-20T04:49:41;18.60;;;8.50;;
8640;SDS011;4358;42.100;25.222;2023-07-20T04:52:08;20.80;;;8.10;;
8640;SDS011;4358;42.100;25.222;2023-07-20T04:54:35;11.13;;;7.10;;
8640;SDS011;4358;42.100;25.222;2023-07-20T04:57:01;16.67;;;7.87;;
8640;SDS011;4358;42.100;25.222;2023-07-20T04:59:30;7.90;;;7.10;;
8640;SDS011;4358;42.100;25.222;2023-07-20T05:01:59;18.47;;;7.63;;
8640;SDS011;4358;42.100;25.222;2023-07-20T05:04:25;13.73;;;7.00;;
8640;SDS011;4358;42.100;25.222;2023-07-20T05:06:52;16.37;;;9.60;;
8640;SDS011;4358;42.100;25.222;2023-07-20T05:09:19;9.93;;;7.50;;
8640;SDS011;4358;42.100;25.222;2023-07-20T05:11:46;13.53;;;7.33;;
8640;SDS011;4358;42.100;25.222;2023-07-20T05:14:14;12.17;;;7.43;;
8640;SDS011;4358;42.100;25.222;2023-07-20T05:16:43;11.53;;;6.90;;
8640;SDS011;4358;42.100;25.222;2023-07-20T05:19:10;11.73;;;7.23;;
8640;SDS011;4358;42.100;25.222;2023-07-20T05:21:37;11.87;;;7.27;;
8640;SDS011;4358;42.100;25.222;2023-07-20T05:24:04;13.27;;;8.63;;
8640;SDS011;4358;42.100;25.222;2023-07-20T05:26:31;20.97;;;7.57;;
8640;SDS011;4358;42.100;25.222;2023-07-20T05:28:58;10.77;;;7.00;;
8640;SDS011;4358;42.100;25.222;2023-07-20T05:31:25;10.90;;;7.03;;
8640;SDS011;4358;42.100;25.222;2023-07-20T05:33:53;12.60;;;7.03;;
8640;SDS011;4358;42.100;25.222;2023-07-20T05:36:20;11.90;;;7.57;;
8640;SDS011;4358;42.100;25.222;2023-07-20T05:38:47;12.00;;;7.53;;
8640;SDS011;4358;42.100;25.222;2023-07-20T05:41:14;8.87;;;7.07;;
8640;SDS011;4358;42.100;25.222;2023-07-20T05:43:44;10.83;;;7.10;;
8640;SDS011;4358;42.100;25.222;2023-07-20T05:46:11;11.37;;;7.03;;
8640;SDS011;4358;42.100;25.222;2023-07-20T05:48:37;9.47;;;6.60;;
8640;SDS011;4358;42.100;25.222;2023-07-20T05:51:06;10.90;;;6.93;;
8640;SDS011;4358;42.100;25.222;2023-07-20T05:53:35;16.53;;;6.73;;
8640;SDS011;4358;42.100;25.222;2023-07-20T05:56:01;8.43;;;6.53;;
8640;SDS011;4358;42.100;25.222;2023-07-20T05:58:29;17.95;;;6.43;;
8640;SDS011;4358;42.100;25.222;2023-07-20T06:00:56;11.88;;;6.00;;
8640;SDS011;4358;42.100;25.222;2023-07-20T06:03:23;9.93;;;5.53;;
8640;SDS011;4358;42.100;25.222;2023-07-20T06:05:50;9.57;;;6.40;;
8640;SDS011;4358;42.100;25.222;2023-07-20T06:08:18;10.18;;;5.43;;
8640;SDS011;4358;42.100;25.222;2023-07-20T06:10:49;8.82;;;5.55;;
8640;SDS011;4358;42.100;25.222;2023-07-20T06:13:17;5.90;;;5.30;;
8640;SDS011;4358;42.100;25.222;2023-07-20T06:15:44;7.60;;;5.68;;
8640;SDS011;4358;42.100;25.222;2023-07-20T06:18:11;7.22;;;5.65;;
8640;SDS011;4358;42.100;25.222;2023-07-20T06:20:38;9.82;;;5.90;;
8640;SDS011;4358;42.100;25.222;2023-07-20T06:23:04;7.18;;;5.95;;
8640;SDS011;4358;42.100;25.222;2023-07-20T06:25:33;8.70;;;6.22;;
8640;SDS011;4358;42.100;25.222;2023-07-20T06:27:59;9.38;;;6.05;;
8640;SDS011;4358;42.100;25.222;2023-07-20T06:30:26;10.65;;;5.68;;
8640;SDS011;4358;42.100;25.222;2023-07-20T06:32:53;7.63;;;5.80;;
8640;SDS011;4358;42.100;25.222;2023-07-20T06:35:20;6.80;;;5.47;;
8640;SDS011;4358;42.100;25.222;2023-07-20T06:37:47;7.05;;;5.97;;
8640;SDS011;4358;42.100;25.222;2023-07-20T06:40:14;7.07;;;5.63;;
8640;SDS011;4358;42.100;25.222;2023-07-20T06:42:42;7.63;;;5.55;;
8640;SDS011;4358;42.100;25.222;2023-07-20T06:45:09;9.57;;;7.18;;
8640;SDS011;4358;42.100;25.222;2023-07-20T06:47:37;7.65;;;5.50;;
8640;SDS011;4358;42.100;25.222;2023-07-20T06:50:05;6.30;;;5.70;;
8640;SDS011;4358;42.100;25.222;2023-07-20T06:52:33;9.13;;;6.30;;
8640;SDS011;4358;42.100;25.222;2023-07-20T06:55:00;8.05;;;5.97;;
8640;SDS011;4358;42.100;25.222;2023-07-20T06:57:27;9.20;;;5.90;;
8640;SDS011;4358;42.100;25.222;2023-07-20T06:59:55;9.98;;;6.40;;
8640;SDS011;4358;42.100;25.222;2023-07-20T07:02:22;9.93;;;5.57;;
8640;SDS011;4358;42.100;25.222;2023-07-20T07:04:49;6.18;;;5.50;;
8640;SDS011;4358;42.100;25.222;2023-07-20T07:07:16;6.85;;;6.10;;
8640;SDS011;4358;42.100;25.222;2023-07-20T07:09:42;8.77;;;5.60;;
8640;SDS011;4358;42.100;25.222;2023-07-20T07:12:09;7.35;;;5.60;;
8640;SDS011;4358;42.100;25.222;2023-07-20T07:14:36;8.07;;;6.78;;
8640;SDS011;4358;42.100;25.222;2023-07-20T07:17:05;8.10;;;6.30;;
8640;SDS011;4358;42.100;25.222;2023-07-20T07:19:32;7.03;;;6.32;;
8640;SDS011;4358;42.100;25.222;2023-07-20T07:21:59;9.93;;;5.15;;
8640;SDS011;4358;42.100;25.222;2023-07-20T07:24:26;7.30;;;5.80;;
8640;SDS011;4358;42.100;25.222;2023-07-20T07:26:58;10.85;;;5.38;;
8640;SDS011;4358;42.100;25.222;2023-07-20T07:29:25;9.13;;;5.38;;
8640;SDS011;4358;42.100;25.222;2023-07-20T07:31:52;7.15;;;6.55;;
8640;SDS011;4358;42.100;25.222;2023-07-20T07:34:20;6.50;;;5.47;;
8640;SDS011;4358;42.100;25.222;2023-07-20T07:36:47;6.18;;;5.57;;
8640;SDS011;4358;42.100;25.222;2023-07-20T07:39:14;11.65;;;5.95;;
8640;SDS011;4358;42.100;25.222;2023-07-20T07:41:41;10.25;;;5.63;;
8640;SDS011;4358;42.100;25.222;2023-07-20T07:44:08;9.10;;;5.90;;
8640;SDS011;4358;42.100;25.222;2023-07-20T07:46:35;7.15;;;5.95;;
8640;SDS011;4358;42.100;25.222;2023-07-20T07:49:01;6.50;;;5.70;;
8640;SDS011;4358;42.100;25.222;2023-07-20T07:51:30;6.30;;;5.40;;
8640;SDS011;4358;42.100;25.222;2023-07-20T07:53:57;6.72;;;5.95;;
8640;SDS011;4358;42.100;25.222;2023-07-20T07:56:24;5.68;;;5.18;;
8640;SDS011;4358;42.100;25.222;2023-07-20T07:58:50;5.32;;;4.82;;
8640;SDS011;4358;42.100;25.222;2023-07-20T08:01:17;5.82;;;5.22;;
8640;SDS011;4358;42.100;25.222;2023-07-20T08:03:45;7.60;;;5.40;;
8640;SDS011;4358;42.100;25.222;2023-07-20T08:06:13;7.88;;;5.60;;
8640;SDS011;4358;42.100;25.222;2023-07-20T08:08:41;9.07;;;5.10;;
8640;SDS011;4358;42.100;25.222;2023-07-20T08:11:08;5.32;;;4.82;;
8640;SDS011;4358;42.100;25.222;2023-07-20T08:13:35;5.68;;;5.07;;
8640;SDS011;4358;42.100;25.222;2023-07-20T08:16:03;6.28;;;4.88;;
8640;SDS011;4358;42.100;25.222;2023-07-20T08:18:30;5.35;;;4.85;;
8640;SDS011;4358;42.100;25.222;2023-07-20T08:20:57;5.50;;;5.00;;
8640;SDS011;4358;42.100;25.222;2023-07-20T08:23:24;6.07;;;4.88;;
8640;SDS011;4358;42.100;25.222;2023-07-20T08:25:54;5.57;;;5.00;;
8640;SDS011;4358;42.100;25.222;2023-07-20T08:28:20;8.07;;;5.45;;
8640;SDS011;4358;42.100;25.222;2023-07-20T08:30:48;5.50;;;5.00;;
8640;SDS011;4358;42.100;25.222;2023-07-20T08:33:15;6.25;;;4.65;;
8640;SDS011;4358;42.100;25.222;2023-07-20T08:35:44;5.60;;;4.60;;
8640;SDS011;4358;42.100;25.222;2023-07-20T08:38:12;7.45;;;4.93;;
8640;SDS011;4358;42.100;25.222;2023-07-20T08:40:39;5.53;;;5.03;;
8640;SDS011;4358;42.100;25.222;2023-07-20T08:43:08;6.05;;;5.45;;
8640;SDS011;4358;42.100;25.222;2023-07-20T08:45:38;5.32;;;4.85;;
8640;SDS011;4358;42.100;25.222;2023-07-20T08:48:06;7.03;;;6.32;;
8640;SDS011;4358;42.100;25.222;2023-07-20T08:50:33;5.80;;;5.07;;
8640;SDS011;4358;42.100;25.222;2023-07-20T08:53:01;6.63;;;5.22;;
8640;SDS011;4358;42.100;25.222;2023-07-20T08:55:29;5.43;;;4.95;;
8640;SDS011;4358;42.100;25.222;2023-07-20T08:57:57;5.38;;;4.90;;
8640;SDS011;4358;42.100;25.222;2023-07-20T09:00:27;6.18;;;5.03;;
8640;SDS011;4358;42.100;25.222;2023-07-20T09:02:54;6.32;;;4.90;;
8640;SDS011;4358;42.100;25.222;2023-07-20T09:05:22;5.90;;;4.88;;
8640;SDS011;4358;42.100;25.222;2023-07-20T09:07:51;6.55;;;5.65;;
8640;SDS011;4358;42.100;25.222;2023-07-20T09:10:19;6.30;;;5.57;;
8640;SDS011;4358;42.100;25.222;2023-07-20T09:12:46;7.00;;;5.40;;
8640;SDS011;4358;42.100;25.222;2023-07-20T09:15:14;6.03;;;5.18;;
8640;SDS011;4358;42.100;25.222;2023-07-20T09:17:46;11.65;;;5.38;;
8640;SDS011;4358;42.100;25.222;2023-07-20T09:20:14;5.53;;;4.97;;
8640;SDS011;4358;42.100;25.222;2023-07-20T09:22:42;10.38;;;5.13;;
8640;SDS011;4358;42.100;25.222;2023-07-20T09:25:10;6.32;;;4.93;;
8640;SDS011;4358;42.100;25.222;2023-07-20T09:27:40;6.03;;;5.10;;
8640;SDS011;4358;42.100;25.222;2023-07-20T09:30:07;7.05;;;5.10;;
8640;SDS011;4358;42.100;25.222;2023-07-20T09:32:38;8.60;;;5.38;;
8640;SDS011;4358;42.100;25.222;2023-07-20T09:35:11;6.53;;;5.55;;
8640;SDS011;4358;42.100;25.222;2023-07-20T09:37:39;7.13;;;5.30;;
8640;SDS011;4358;42.100;25.222;2023-07-20T09:40:07;5.57;;;5.07;;
8640;SDS011;4358;42.100;25.222;2023-07-20T09:42:35;6.90;;;4.97;;
8640;SDS011;4358;42.100;25.222;2023-07-20T09:45:04;8.93;;;7.32;;
8640;SDS011;4358;42.100;25.222;2023-07-20T09:47:34;6.18;;;5.25;;
8640;SDS011;4358;42.100;25.222;2023-07-20T09:50:02;8.68;;;5.97;;
8640;SDS011;4358;42.100;25.222;2023-07-20T09:52:31;7.05;;;5.10;;
8640;SDS011;4358;42.100;25.222;2023-07-20T09:54:58;8.82;;;5.15;;
8640;SDS011;4358;42.100;25.222;2023-07-20T09:57:25;5.70;;;5.03;;
8640;SDS011;4358;42.100;25.222;2023-07-20T09:59:52;6.28;;;5.15;;
8640;SDS011;4358;42.100;25.222;2023-07-20T10:02:20;6.53;;;5.57;;
8640;SDS011;4358;42.100;25.222;2023-07-20T10:04:49;6.07;;;5.57;;
8640;SDS011;4358;42.100;25.222;2023-07-20T10:07:20;7.53;;;5.45;;
8640;SDS011;4358;42.100;25.222;2023-07-20T10:09:51;6.28;;;5.30;;
8640;SDS011;4358;42.100;25.222;2023-07-20T10:12:20;5.68;;;5.18;;
8640;SDS011;4358;42.100;25.222;2023-07-20T10:14:51;5.72;;;5.20;;
8640;SDS011;4358;42.100;25.222;2023-07-20T10:17:25;6.03;;;5.45;;
8640;SDS011;4358;42.100;25.222;2023-07-20T10:19:54;7.18;;;5.57;;
8640;SDS011;4358;42.100;25.222;2023-07-20T10:22:24;5.80;;;5.30;;
8640;SDS011;4358;42.100;25.222;2023-07-20T10:24:54;8.48;;;5.28;;
8640;SDS011;4358;42.100;25.222;2023-07-20T10:27:23;11.68;;;5.50;;
8640;SDS011;4358;42.100;25.222;2023-07-20T10:29:51;6.05;;;5.32;;
8640;SDS011;4358;42.100;25.222;2023-07-20T10:32:20;9.57;;;5.72;;
8640;SDS011;4358;42.100;25.222;2023-07-20T10:34:50;6.30;;;5.80;;
8640;SDS011;4358;42.100;25.222;2023-07-20T10:40:27;5.70;;;5.10;;
8640;SDS011;4358;42.100;25.222;2023-07-20T10:42:59;6.70;;;4.72;;
8640;SDS011;4358;42.100;25.222;2023-07-20T10:45:34;8.40;;;5.07;;
8640;SDS011;4358;42.100;25.222;2023-07-20T10:48:14;5.18;;;4.65;;
8640;SDS011;4358;42.100;25.222;2023-07-20T10:50:42;5.95;;;5.35;;
8640;SDS011;4358;42.100;25.222;2023-07-20T10:53:10;9.85;;;5.38;;
8640;SDS011;4358;42.100;25.222;2023-07-20T10:55:39;7.88;;;5.47;;
8640;SDS011;4358;42.100;25.222;2023-07-20T10:58:07;21.63;;;19.50;;
8640;SDS011;4358;42.100;25.222;2023-07-20T11:00:35;9.57;;;5.72;;
8640;SDS011;4358;42.100;25.222;2023-07-20T11:03:02;6.72;;;5.38;;
8640;SDS011;4358;42.100;25.222;2023-07-20T11:05:32;6.45;;;5.03;;
8640;SDS011;4358;42.100;25.222;2023-07-20T11:08:02;7.00;;;5.75;;
8640;SDS011;4358;42.100;25.222;2023-07-20T11:10:31;6.85;;;5.68;;
8640;SDS011;4358;42.100;25.222;2023-07-20T11:16:03;6.50;;;5.70;;
8640;SDS011;4358;42.100;25.222;2023-07-20T11:18:33;6.63;;;6.03;;
8640;SDS011;4358;42.100;25.222;2023-07-20T11:21:06;6.20;;;5.35;;
8640;SDS011;4358;42.100;25.222;2023-07-20T11:23:37;7.65;;;5.22;;
8640;SDS011;4358;42.100;25.222;2023-07-20T11:26:05;8.90;;;5.68;;
8640;SDS011;4358;42.100;25.222;2023-07-20T11:28:35;6.80;;;5.30;;
8640;SDS011;4358;42.100;25.222;2023-07-20T11:31:02;7.00;;;5.68;;
8640;SDS011;4358;42.100;25.222;2023-07-20T11:33:29;6.82;;;5.50;;
8640;SDS011;4358;42.100;25.222;2023-07-20T11:35:55;9.02;;;6.10;;
8640;SDS011;4358;42.100;25.222;2023-07-20T11:38:23;11.48;;;9.30;;
8640;SDS011;4358;42.100;25.222;2023-07-20T11:40:50;8.38;;;6.72;;
8640;SDS011;4358;42.100;25.222;2023-07-20T11:43:17;8.77;;;6.03;;
8640;SDS011;4358;42.100;25.222;2023-07-20T11:45:47;7.53;;;5.78;;
8640;SDS011;4358;42.100;25.222;2023-07-20T11:48:15;5.80;;;5.28;;
8640;SDS011;4358;42.100;25.222;2023-07-20T11:50:42;5.38;;;4.90;;
8640;SDS011;4358;42.100;25.222;2023-07-20T11:53:08;5.70;;;5.20;;
8640;SDS011;4358;42.100;25.222;2023-07-20T11:55:36;6.50;;;5.20;;
8640;SDS011;4358;42.100;25.222;2023-07-20T11:58:04;8.70;;;5.72;;
8640;SDS011;4358;42.100;25.222;2023-07-20T12:00:31;9.23;;;5.25;;
8640;SDS011;4358;42.100;25.222;2023-07-20T12:03:00;5.50;;;4.90;;
8640;SDS011;4358;42.100;25.222;2023-07-20T12:05:28;5.78;;;5.20;;
8640;SDS011;4358;42.100;25.222;2023-07-20T12:07:54;9.77;;;5.68;;
8640;SDS011;4358;42.100;25.222;2023-07-20T12:10:25;7.75;;;5.18;;
8640;SDS011;4358;42.100;25.222;2023-07-20T12:12:53;4.90;;;4.40;;
8640;SDS011;4358;42.100;25.222;2023-07-20T12:15:22;4.78;;;4.13;;
8640;SDS011;4358;42.100;25.222;2023-07-20T12:17:50;6.22;;;4.18;;
8640;SDS011;4358;42.100;25.222;2023-07-20T12:20:26;6.30;;;4.28;;
8640;SDS011;4358;42.100;25.222;2023-07-20T12:22:55;5.80;;;4.20;;
8640;SDS011;4358;42.100;25.222;2023-07-20T12:25:23;7.70;;;4.13;;
8640;SDS011;4358;42.100;25.222;2023-07-20T12:28:00;5.78;;;4.22;;
8640;SDS011;4358;42.100;25.222;2023-07-20T12:30:28;8.70;;;4.68;;
8640;SDS011;4358;42.100;25.222;2023-07-20T12:32:55;8.27;;;4.60;;
8640;SDS011;4358;42.100;25.222;2023-07-20T12:35:21;5.95;;;4.45;;
8640;SDS011;4358;42.100;25.222;2023-07-20T12:37:50;6.55;;;4.25;;
8640;SDS011;4358;42.100;25.222;2023-07-20T12:40:16;7.28;;;4.47;;
8640;SDS011;4358;42.100;25.222;2023-07-20T12:42:43;7.40;;;4.15;;
8640;SDS011;4358;42.100;25.222;2023-07-20T12:45:10;8.55;;;4.43;;
8640;SDS011;4358;42.100;25.222;2023-07-20T12:47:38;6.00;;;4.20;;
8640;SDS011;4358;42.100;25.222;2023-07-20T12:50:06;11.13;;;4.25;;
8640;SDS011;4358;42.100;25.222;2023-07-20T12:52:35;6.90;;;4.80;;
8640;SDS011;4358;42.100;25.222;2023-07-20T12:55:05;8.20;;;4.40;;
8640;SDS011;4358;42.100;25.222;2023-07-20T12:57:33;4.60;;;4.20;;
8640;SDS011;4358;42.100;25.222;2023-07-20T13:00:01;5.50;;;4.15;;
8640;SDS011;4358;42.100;25.222;2023-07-20T13:02:29;6.65;;;4.47;;
8640;SDS011;4358;42.100;25.222;2023-07-20T13:04:56;6.13;;;4.25;;
8640;SDS011;4358;42.100;25.222;2023-07-20T13:07:29;6.07;;;5.00;;
8640;SDS011;4358;42.100;25.222;2023-07-20T13:09:57;11.70;;;6.28;;
8640;SDS011;4358;42.100;25.222;2023-07-20T13:12:26;7.75;;;4.18;;
8640;SDS011;4358;42.100;25.222;2023-07-20T13:14:54;7.65;;;4.60;;
8640;SDS011;4358;42.100;25.222;2023-07-20T13:17:21;7.30;;;4.57;;
8640;SDS011;4358;42.100;25.222;2023-07-20T13:19:48;5.97;;;4.75;;
8640;SDS011;4358;42.100;25.222;2023-07-20T13:22:15;7.85;;;5.15;;
8640;SDS011;4358;42.100;25.222;2023-07-20T13:24:43;6.82;;;4.40;;
8640;SDS011;4358;42.100;25.222;2023-07-20T13:27:11;8.20;;;4.63;;
8640;SDS011;4358;42.100;25.222;2023-07-20T13:29:39;10.23;;;4.65;;
8640;SDS011;4358;42.100;25.222;2023-07-20T13:32:07;6.05;;;4.57;;
8640;SDS011;4358;42.100;25.222;2023-07-20T13:34:34;5.10;;;4.60;;
8640;SDS011;4358;42.100;25.222;2023-07-20T13:37:01;11.90;;;4.70;;
8640;SDS011;4358;42.100;25.222;2023-07-20T13:39:29;6.30;;;4.45;;
8640;SDS011;4358;42.100;25.222;2023-07-20T13:41:55;6.68;;;4.75;;
8640;SDS011;4358;42.100;25.222;2023-07-20T13:44:23;8.52;;;4.97;;
8640;SDS011;4358;42.100;25.222;2023-07-20T13:46:51;5.95;;;4.32;;
8640;SDS011;4358;42.100;25.222;2023-07-20T13:49:18;6.05;;;4.38;;
8640;SDS011;4358;42.100;25.222;2023-07-20T13:51:45;6.22;;;4.45;;
8640;SDS011;4358;42.100;25.222;2023-07-20T13:54:12;9.38;;;4.75;;
8640;SDS011;4358;42.100;25.222;2023-07-20T13:56:39;8.25;;;5.00;;
8640;SDS011;4358;42.100;25.222;2023-07-20T13:59:06;12.50;;;5.07;;
8640;SDS011;4358;42.100;25.222;2023-07-20T14:01:33;8.20;;;4.60;;
8640;SDS011;4358;42.100;25.222;2023-07-20T14:04:02;7.43;;;4.55;;
8640;SDS011;4358;42.100;25.222;2023-07-20T14:06:29;9.40;;;5.20;;
8640;SDS011;4358;42.100;25.222;2023-07-20T14:08:58;5.13;;;4.63;;
8640;SDS011;4358;42.100;25.222;2023-07-20T14:11:25;8.95;;;4.82;;
8640;SDS011;4358;42.100;25.222;2023-07-20T14:13:52;6.15;;;4.30;;
8640;SDS011;4358;42.100;25.222;2023-07-20T14:16:19;6.72;;;4.47;;
8640;SDS011;4358;42.100;25.222;2023-07-20T14:18:47;6.38;;;4.93;;
8640;SDS011;4358;42.100;25.222;2023-07-20T14:21:15;5.93;;;4.22;;
8640;SDS011;4358;42.100;25.222;2023-07-20T15:56:54;7.03;;;6.32;;
8640;SDS011;4358;42.100;25.222;2023-07-20T15:59:21;6.93;;;5.50;;
8640;SDS011;4358;42.100;25.222;2023-07-20T16:01:48;10.27;;;5.78;;
8640;SDS011;4358;42.100;25.222;2023-07-20T16:04:14;6.55;;;5.88;;
8640;SDS011;4358;42.100;25.222;2023-07-20T16:06:41;10.07;;;5.88;;
8640;SDS011;4358;42.100;25.222;2023-07-20T16:09:08;8.63;;;5.38;;
8640;SDS011;4358;42.100;25.222;2023-07-20T16:11:35;7.93;;;6.28;;
8640;SDS011;4358;42.100;25.222;2023-07-20T16:14:05;7.93;;;5.90;;
8640;SDS011;4358;42.100;25.222;2023-07-20T16:16:33;9.20;;;5.95;;
8640;SDS011;4358;42.100;25.222;2023-07-20T16:19:00;6.50;;;5.90;;
8640;SDS011;4358;42.100;25.222;2023-07-20T16:21:27;8.10;;;5.97;;
8640;SDS011;4358;42.100;25.222;2023-07-20T16:23:54;7.28;;;5.85;;
8640;SDS011;4358;42.100;25.222;2023-07-20T16:26:21;10.98;;;5.72;;
8640;SDS011;4358;42.100;25.222;2023-07-20T16:28:48;6.95;;;6.28;;
8640;SDS011;4358;42.100;25.222;2023-07-20T16:31:16;10.82;;;5.90;;
8640;SDS011;4358;42.100;25.222;2023-07-20T16:33:43;6.63;;;5.72;;
8640;SDS011;4358;42.100;25.222;2023-07-20T16:36:12;7.38;;;6.15;;
8640;SDS011;4358;42.100;25.222;2023-07-20T16:38:40;7.15;;;5.57;;
8640;SDS011;4358;42.100;25.222;2023-07-20T16:41:07;7.35;;;5.65;;
8640;SDS011;4358;42.100;25.222;2023-07-20T16:43:35;10.85;;;5.93;;